createdAt,value
2019-01-21T00:01:02.412Z,86.26
2019-01-21T00:02:05.712Z,86.27
2019-01-21T00:03:14.286Z,86.22
2019-01-21T00:04:14.041Z,86.16
2019-01-21T00:05:17.328Z,86.00
2019-01-21T00:06:20.690Z,86.04
2019-01-21T00:07:24.049Z,86.03
2019-01-21T00:08:27.442Z,86.17
2019-01-21T00:09:30.742Z,86.14
2019-01-21T00:10:34.105Z,86.03
2019-01-21T00:11:37.742Z,85.96
2019-01-21T00:12:41.433Z,85.97
2019-01-21T00:13:44.725Z,85.91
2019-01-21T00:14:48.061Z,85.95
2019-01-21T00:15:51.443Z,86.06
2019-01-21T00:16:54.838Z,86.43
2019-01-21T00:17:58.124Z,86.55
2019-01-21T00:19:01.414Z,86.71
2019-01-21T00:20:06.780Z,86.72
2019-01-21T00:21:10.080Z,86.70
2019-01-21T00:22:13.370Z,86.65
2019-01-21T00:23:16.666Z,86.58
2019-01-21T00:24:19.969Z,86.60
2019-01-21T00:25:23.295Z,86.56
2019-01-21T00:26:26.582Z,86.46
2019-01-21T00:27:29.870Z,86.65
2019-01-21T00:28:33.163Z,86.62
2019-01-21T00:29:36.459Z,86.62
2019-01-21T00:30:39.779Z,86.50
2019-01-21T00:31:43.169Z,86.34
2019-01-21T00:32:46.443Z,86.40
2019-01-21T00:33:49.741Z,86.34
2019-01-21T00:34:53.053Z,86.36
2019-01-21T00:35:56.341Z,86.21
2019-01-21T00:37:03.614Z,86.27
2019-01-21T00:38:04.657Z,86.28
2019-01-21T00:39:07.954Z,86.39
2019-01-21T00:40:13.785Z,86.59
2019-01-21T00:41:17.117Z,86.73
2019-01-21T00:42:20.408Z,86.75
2019-01-21T00:43:23.713Z,86.71
2019-01-21T00:44:27.010Z,86.81
2019-01-21T00:45:30.302Z,86.84
2019-01-21T00:46:33.625Z,87.08
2019-01-21T00:47:36.990Z,86.99
2019-01-21T00:48:40.285Z,86.92
2019-01-21T00:49:43.607Z,86.81
2019-01-21T00:50:46.967Z,86.86
2019-01-21T00:51:50.302Z,86.82
2019-01-21T00:52:53.931Z,86.83
2019-01-21T00:53:57.228Z,86.98
2019-01-21T00:55:00.527Z,87.75
2019-01-21T00:56:03.831Z,87.45
2019-01-21T00:57:07.206Z,87.23
2019-01-21T00:58:10.554Z,87.37
2019-01-21T00:59:13.856Z,87.24
2019-01-21T01:00:20.160Z,87.24
2019-01-21T01:01:23.841Z,87.17
2019-01-21T01:02:27.162Z,87.06
2019-01-21T01:03:30.528Z,87.05
2019-01-21T01:04:33.899Z,87.15
2019-01-21T01:05:37.205Z,87.14
2019-01-21T01:06:40.500Z,87.20
2019-01-21T01:07:43.827Z,87.19
2019-01-21T01:08:47.119Z,87.19
2019-01-21T01:09:50.412Z,87.16
2019-01-21T01:10:53.786Z,87.38
2019-01-21T01:11:57.084Z,87.55
2019-01-21T01:13:00.403Z,87.68
2019-01-21T01:14:03.696Z,87.97
2019-01-21T01:15:09.331Z,88.36
2019-01-21T01:16:12.625Z,88.73
2019-01-21T01:17:15.986Z,88.98
2019-01-21T01:18:19.322Z,89.09
2019-01-21T01:19:22.606Z,89.22
2019-01-21T01:20:25.902Z,89.33
2019-01-21T01:21:29.189Z,89.44
2019-01-21T01:22:32.489Z,89.47
2019-01-21T01:23:35.851Z,89.56
2019-01-21T01:24:39.141Z,89.47
2019-01-21T01:25:42.433Z,89.65
2019-01-21T01:26:45.726Z,89.81
2019-01-21T01:27:49.012Z,89.87
2019-01-21T01:28:52.343Z,89.87
2019-01-21T01:29:56.082Z,89.80
2019-01-21T01:30:59.371Z,89.72
2019-01-21T01:32:02.673Z,89.66
2019-01-21T01:33:05.966Z,89.62
2019-01-21T01:34:09.285Z,89.62
2019-01-21T01:35:14.026Z,89.72
2019-01-21T01:36:17.323Z,89.76
2019-01-21T01:37:20.616Z,89.78
2019-01-21T01:38:23.908Z,89.76
2019-01-21T01:39:27.241Z,89.71
2019-01-21T01:40:30.603Z,89.61
2019-01-21T01:41:33.904Z,89.43
2019-01-21T01:42:37.196Z,89.29
2019-01-21T01:43:40.489Z,89.21
2019-01-21T01:44:43.834Z,89.22
2019-01-21T01:45:47.126Z,89.45
2019-01-21T01:46:50.423Z,89.67
2019-01-21T01:47:59.547Z,89.82
2019-01-21T01:49:02.836Z,89.84
2019-01-21T01:50:07.815Z,89.87
2019-01-21T01:51:11.107Z,89.86
2019-01-21T01:52:14.401Z,89.79
2019-01-21T01:53:17.700Z,89.76
2019-01-21T01:54:21.375Z,89.62
2019-01-21T01:55:25.169Z,89.45
2019-01-21T01:56:28.470Z,89.30
2019-01-21T01:57:31.763Z,89.25
2019-01-21T01:58:35.050Z,89.18
2019-01-21T01:59:38.349Z,89.24
2019-01-21T02:00:41.663Z,89.21
2019-01-21T02:01:45.027Z,89.09
2019-01-21T02:02:48.329Z,88.94
2019-01-21T02:03:51.630Z,88.80
2019-01-21T02:04:54.935Z,88.68
2019-01-21T02:05:58.254Z,88.60
2019-01-21T02:07:01.552Z,88.53
2019-01-21T02:08:05.354Z,88.28
2019-01-21T02:09:09.062Z,88.08
2019-01-21T02:10:13.762Z,88.01
2019-01-21T02:11:17.098Z,87.98
2019-01-21T02:12:20.390Z,88.04
2019-01-21T02:13:24.028Z,87.94
2019-01-21T02:14:27.318Z,87.86
2019-01-21T02:15:30.607Z,88.24
2019-01-21T02:16:34.053Z,88.46
2019-01-21T02:17:37.355Z,88.67
2019-01-21T02:18:40.639Z,88.58
2019-01-21T02:19:43.987Z,88.72
2019-01-21T02:20:47.290Z,88.69
2019-01-21T02:21:50.967Z,88.68
2019-01-21T02:22:55.400Z,88.50
2019-01-21T02:24:01.954Z,88.40
2019-01-21T02:25:06.685Z,88.52
2019-01-21T02:26:10.674Z,88.53
2019-01-21T02:27:14.792Z,88.50
2019-01-21T02:28:27.445Z,88.45
2019-01-21T02:29:34.282Z,88.39
2019-01-21T02:30:43.725Z,88.32
2019-01-21T02:32:08.600Z,88.37
2019-01-21T02:33:24.037Z,88.48
2019-01-21T02:34:53.840Z,88.39
2019-01-21T02:36:00.394Z,88.29
2019-01-21T02:37:12.435Z,88.29
2019-01-21T02:38:37.069Z,88.47
2019-01-21T02:40:00.385Z,88.57
2019-01-21T02:41:09.947Z,88.66
2019-01-21T02:42:28.412Z,88.84
2019-01-21T02:43:34.970Z,89.01
2019-01-21T02:44:56.633Z,89.22
2019-01-21T02:46:05.902Z,89.29
2019-01-21T02:47:15.627Z,88.93
2019-01-21T02:48:28.111Z,88.73
2019-01-21T02:49:51.404Z,88.59
2019-01-21T02:51:03.817Z,88.46
2019-01-21T02:52:16.692Z,88.40
2019-01-21T02:53:29.561Z,88.29
2019-01-21T02:54:36.120Z,88.18
2019-01-21T02:55:51.110Z,88.20
2019-01-21T02:57:03.609Z,88.30
2019-01-21T02:58:25.249Z,88.51
2019-01-21T02:59:35.391Z,88.76
2019-01-21T03:00:44.870Z,88.76
2019-01-21T03:02:09.408Z,88.80
2019-01-21T03:03:32.828Z,89.21
2019-01-21T03:04:56.218Z,89.43
2019-01-21T03:06:14.582Z,89.32
2019-01-21T03:07:23.666Z,89.45
2019-01-21T03:08:45.121Z,89.22
2019-01-21T03:09:54.754Z,89.30
2019-01-21T03:11:16.387Z,89.62
2019-01-21T03:12:50.248Z,89.57
2019-01-21T03:14:02.401Z,89.70
2019-01-21T03:15:24.098Z,89.60
2019-01-21T03:16:42.014Z,89.46
2019-01-21T03:18:08.243Z,89.54
2019-01-21T03:19:14.868Z,89.74
2019-01-21T03:20:27.060Z,89.90
2019-01-21T03:21:56.556Z,89.82
2019-01-21T03:23:05.818Z,89.68
2019-01-21T03:24:30.093Z,89.62
2019-01-21T03:25:56.094Z,89.65
2019-01-21T03:27:25.408Z,89.55
2019-01-21T03:28:38.062Z,89.74
2019-01-21T03:30:09.696Z,89.87
2019-01-21T03:31:35.754Z,89.75
2019-01-21T03:33:08.171Z,89.51
2019-01-21T03:34:23.985Z,89.41
2019-01-21T03:35:45.632Z,89.51
2019-01-21T03:36:58.207Z,89.58
2019-01-21T03:38:10.381Z,89.56
2019-01-21T03:39:16.934Z,89.56
2019-01-21T03:40:52.360Z,89.90
2019-01-21T03:42:00.562Z,90.09
2019-01-21T03:43:21.947Z,90.12
2019-01-21T03:44:40.860Z,90.10
2019-01-21T03:46:08.651Z,90.23
2019-01-21T03:47:21.068Z,90.22
2019-01-21T03:48:27.634Z,90.47
2019-01-21T03:49:36.713Z,90.61
2019-01-21T03:50:52.391Z,90.70
2019-01-21T03:52:13.326Z,90.66
2019-01-21T03:53:44.351Z,90.48
2019-01-21T03:54:48.743Z,90.34
2019-01-21T03:55:55.538Z,90.14
2019-01-21T03:57:02.142Z,89.97
2019-01-21T03:58:20.750Z,89.85
2019-01-21T03:59:36.324Z,89.75
2019-01-21T04:00:45.714Z,89.43
2019-01-21T04:02:22.491Z,89.33
2019-01-21T04:03:45.441Z,89.31
2019-01-21T04:04:52.004Z,89.25
2019-01-21T04:06:10.150Z,89.06
2019-01-21T04:07:16.778Z,89.02
2019-01-21T04:08:29.490Z,89.12
2019-01-21T04:09:44.856Z,89.20
2019-01-21T04:10:57.234Z,89.22
2019-01-21T04:12:11.909Z,89.27
2019-01-21T04:13:41.176Z,89.39
2019-01-21T04:14:56.599Z,89.29
2019-01-21T04:16:09.468Z,89.27
2019-01-21T04:17:28.161Z,89.49
2019-01-21T04:18:49.772Z,89.53
2019-01-21T04:20:10.810Z,89.40
2019-01-21T04:21:23.188Z,89.26
2019-01-21T04:22:29.748Z,89.48
2019-01-21T04:23:50.919Z,89.87
2019-01-21T04:25:03.044Z,90.18
2019-01-21T04:26:30.537Z,90.09
2019-01-21T04:27:54.537Z,90.87
2019-01-21T04:29:06.883Z,91.98
2019-01-21T04:30:21.985Z,92.09
2019-01-21T04:31:48.215Z,91.75
2019-01-21T04:33:01.089Z,91.49
2019-01-21T04:34:08.024Z,90.54
2019-01-21T04:35:35.776Z,89.93
2019-01-21T04:36:54.005Z,89.52
2019-01-21T04:38:09.950Z,89.79
2019-01-21T04:39:19.194Z,89.92
2019-01-21T04:40:28.846Z,89.96
2019-01-21T04:41:53.521Z,89.83
2019-01-21T04:43:02.960Z,89.76
2019-01-21T04:44:24.745Z,89.50
2019-01-21T04:45:37.681Z,89.37
2019-01-21T04:47:03.733Z,89.28
2019-01-21T04:48:21.675Z,89.22
2019-01-21T04:49:30.805Z,89.12
2019-01-21T04:50:55.737Z,89.13
2019-01-21T04:52:20.478Z,89.17
2019-01-21T04:53:48.545Z,89.35
2019-01-21T04:54:57.830Z,89.41
2019-01-21T04:56:22.820Z,89.58
2019-01-21T04:57:46.174Z,89.90
2019-01-21T04:59:14.229Z,90.09
2019-01-21T05:00:31.339Z,89.66
2019-01-21T05:01:53.269Z,89.53
2019-01-21T05:03:14.987Z,89.47
2019-01-21T05:04:44.250Z,89.35
2019-01-21T05:06:05.699Z,89.41
2019-01-21T05:07:30.282Z,89.31
2019-01-21T05:08:42.565Z,89.29
2019-01-21T05:10:12.008Z,89.30
2019-01-21T05:11:30.338Z,89.21
2019-01-21T05:12:39.695Z,89.07
2019-01-21T05:13:46.334Z,89.12
2019-01-21T05:15:20.294Z,89.23
2019-01-21T05:16:35.610Z,89.51
2019-01-21T05:17:48.031Z,89.48
2019-01-21T05:18:57.216Z,89.29
2019-01-21T05:20:37.879Z,89.41
2019-01-21T05:21:46.993Z,89.66
2019-01-21T05:22:53.550Z,89.84
2019-01-21T05:24:22.500Z,89.86
2019-01-21T05:25:29.062Z,89.85
2019-01-21T05:26:50.729Z,89.86
2019-01-21T05:28:18.156Z,89.89
2019-01-21T05:29:45.955Z,89.91
2019-01-21T05:30:55.786Z,89.94
2019-01-21T05:32:14.527Z,89.97
2019-01-21T05:33:33.045Z,90.57
2019-01-21T05:34:51.523Z,90.58
2019-01-21T05:36:14.749Z,90.27
2019-01-21T05:37:27.031Z,90.02
2019-01-21T05:38:36.567Z,89.84
2019-01-21T05:39:55.228Z,89.90
2019-01-21T05:41:10.394Z,90.10
2019-01-21T05:42:31.663Z,90.42
2019-01-21T05:43:44.013Z,90.44
2019-01-21T05:45:25.572Z,90.38
2019-01-21T05:46:40.535Z,90.28
2019-01-21T05:48:01.777Z,90.32
2019-01-21T05:49:30.932Z,90.31
2019-01-21T05:50:58.811Z,90.23
2019-01-21T05:52:23.384Z,90.16
2019-01-21T05:53:46.270Z,90.16
2019-01-21T05:55:12.129Z,90.07
2019-01-21T05:56:24.376Z,90.25
2019-01-21T05:57:42.956Z,90.50
2019-01-21T05:59:10.964Z,90.63
2019-01-21T06:00:19.954Z,90.59
2019-01-21T06:01:52.688Z,90.52
2019-01-21T06:03:17.556Z,90.51
2019-01-21T06:04:43.274Z,90.32
2019-01-21T06:06:06.457Z,90.24
2019-01-21T06:07:13.015Z,90.22
2019-01-21T06:08:28.980Z,90.28
2019-01-21T06:09:51.787Z,90.32
2019-01-21T06:11:01.120Z,90.19
2019-01-21T06:12:23.328Z,90.33
2019-01-21T06:13:35.761Z,90.51
2019-01-21T06:14:54.600Z,90.57
2019-01-21T06:16:07.311Z,90.54
2019-01-21T06:17:28.941Z,90.38
2019-01-21T06:18:47.444Z,90.43
2019-01-21T06:20:03.185Z,90.78
2019-01-21T06:21:21.659Z,90.93
2019-01-21T06:22:31.006Z,91.01
2019-01-21T06:23:56.261Z,91.03
2019-01-21T06:25:05.743Z,91.10
2019-01-21T06:26:12.298Z,90.94
2019-01-21T06:27:37.029Z,90.78
2019-01-21T06:28:58.023Z,90.61
2019-01-21T06:30:21.000Z,90.40
2019-01-21T06:31:42.668Z,90.22
2019-01-21T06:33:16.270Z,90.04
2019-01-21T06:34:28.417Z,89.88
2019-01-21T06:35:46.705Z,89.76
2019-01-21T06:36:53.269Z,89.50
2019-01-21T06:38:08.572Z,89.33
2019-01-21T06:39:36.094Z,89.07
2019-01-21T06:40:45.609Z,88.91
2019-01-21T06:42:15.068Z,89.10
2019-01-21T06:43:30.377Z,89.07
2019-01-21T06:44:39.720Z,89.00
2019-01-21T06:46:15.258Z,89.06
2019-01-21T06:47:36.700Z,89.29
2019-01-21T06:49:04.683Z,89.32
2019-01-21T06:50:34.085Z,89.18
2019-01-21T06:51:57.402Z,88.83
2019-01-21T06:53:21.963Z,88.59
2019-01-21T06:54:31.296Z,88.44
2019-01-21T06:55:46.720Z,88.54
2019-01-21T06:57:13.256Z,88.64
2019-01-21T06:58:32.021Z,88.52
2019-01-21T06:59:56.443Z,88.44
2019-01-21T07:01:22.770Z,88.55
2019-01-21T07:02:41.163Z,88.51
2019-01-21T07:04:13.499Z,88.53
2019-01-21T07:05:48.861Z,88.41
2019-01-21T07:07:03.891Z,88.39
2019-01-21T07:08:19.432Z,88.49
2019-01-21T07:09:34.618Z,88.53
2019-01-21T07:10:44.012Z,88.42
2019-01-21T07:11:53.618Z,88.35
2019-01-21T07:13:00.189Z,88.35
2019-01-21T07:14:24.920Z,88.35
2019-01-21T07:15:31.523Z,88.43
2019-01-21T07:16:47.184Z,88.44
2019-01-21T07:17:59.970Z,88.24
2019-01-21T07:19:23.420Z,88.18
2019-01-21T07:20:29.979Z,88.14
2019-01-21T07:21:55.536Z,88.05
2019-01-21T07:23:23.092Z,87.92
2019-01-21T07:24:46.381Z,87.78
2019-01-21T07:26:22.858Z,87.80
2019-01-21T07:27:32.161Z,87.74
2019-01-21T07:28:43.870Z,87.62
2019-01-21T07:30:05.279Z,87.66
2019-01-21T07:31:26.230Z,87.77
2019-01-21T07:32:41.566Z,87.97
2019-01-21T07:33:48.168Z,88.34
2019-01-21T07:35:16.134Z,87.96
2019-01-21T07:36:22.694Z,87.62
2019-01-21T07:37:41.280Z,87.55
2019-01-21T07:38:50.647Z,87.45
2019-01-21T07:40:16.841Z,87.27
2019-01-21T07:41:32.624Z,87.18
2019-01-21T07:43:09.416Z,86.97
2019-01-21T07:44:38.901Z,86.91
2019-01-21T07:45:57.863Z,86.96
2019-01-21T07:47:16.835Z,87.17
2019-01-21T07:48:23.423Z,87.31
2019-01-21T07:49:48.287Z,87.33
2019-01-21T07:51:28.178Z,87.35
2019-01-21T07:52:52.877Z,87.43
2019-01-21T07:53:59.541Z,87.40
2019-01-21T07:55:06.107Z,87.46
2019-01-21T07:56:32.399Z,87.50
2019-01-21T07:57:54.185Z,87.42
2019-01-21T07:59:12.371Z,87.26
2019-01-21T08:00:24.941Z,87.30
2019-01-21T08:01:43.147Z,87.34
2019-01-21T08:02:49.713Z,87.20
2019-01-21T08:04:16.797Z,87.06
2019-01-21T08:05:26.164Z,86.93
2019-01-21T08:06:38.358Z,86.78
2019-01-21T08:07:47.662Z,86.81
2019-01-21T08:08:56.977Z,86.94
2019-01-21T08:10:06.304Z,86.83
2019-01-21T08:11:28.129Z,86.73
2019-01-21T08:12:53.109Z,86.70
2019-01-21T08:14:14.963Z,86.67
2019-01-21T08:15:54.878Z,86.85
2019-01-21T08:17:07.448Z,86.90
2019-01-21T08:18:48.845Z,87.15
2019-01-21T08:20:16.742Z,87.29
2019-01-21T08:21:50.770Z,87.41
2019-01-21T08:23:15.008Z,87.35
2019-01-21T08:24:33.431Z,87.03
2019-01-21T08:25:55.514Z,86.68
2019-01-21T08:27:19.377Z,86.81
2019-01-21T08:28:41.159Z,86.79
2019-01-21T08:29:47.723Z,86.73
2019-01-21T08:31:03.212Z,86.95
2019-01-21T08:32:28.168Z,86.87
2019-01-21T08:33:37.309Z,86.61
2019-01-21T08:35:02.062Z,86.50
2019-01-21T08:36:31.442Z,86.69
2019-01-21T08:37:43.226Z,86.91
2019-01-21T08:39:07.642Z,87.33
2019-01-21T08:40:16.894Z,87.44
2019-01-21T08:41:37.906Z,87.76
2019-01-21T08:43:13.334Z,87.33
2019-01-21T08:44:28.779Z,87.26
2019-01-21T08:45:38.522Z,87.33
2019-01-21T08:46:53.847Z,87.19
2019-01-21T08:48:22.705Z,87.35
2019-01-21T08:49:52.798Z,87.42
2019-01-21T08:51:22.007Z,86.91
2019-01-21T08:52:40.454Z,86.43
2019-01-21T08:53:49.715Z,86.35
2019-01-21T08:55:15.446Z,85.64
2019-01-21T08:56:27.783Z,85.75
2019-01-21T08:57:43.150Z,85.90
2019-01-21T08:58:52.548Z,85.91
2019-01-21T09:00:14.027Z,86.08
2019-01-21T09:01:29.630Z,86.33
2019-01-21T09:02:57.380Z,86.44
2019-01-21T09:04:18.889Z,85.95
2019-01-21T09:05:28.686Z,85.53
2019-01-21T09:06:50.547Z,85.60
2019-01-21T09:08:24.529Z,85.51
2019-01-21T09:09:33.920Z,85.26
2019-01-21T09:10:40.484Z,84.50
2019-01-21T09:12:08.487Z,84.26
2019-01-21T09:13:20.939Z,83.95
2019-01-21T09:14:30.029Z,83.98
2019-01-21T09:15:36.588Z,84.26
2019-01-21T09:16:58.367Z,84.29
2019-01-21T09:18:07.594Z,84.31
2019-01-21T09:19:23.110Z,84.58
2019-01-21T09:20:45.945Z,84.75
2019-01-21T09:22:07.460Z,84.42
2019-01-21T09:23:35.161Z,84.69
2019-01-21T09:24:59.590Z,84.99
2019-01-21T09:26:24.427Z,84.73
2019-01-21T09:27:47.592Z,84.36
2019-01-21T09:29:09.063Z,84.30
2019-01-21T09:30:30.789Z,84.12
2019-01-21T09:31:37.396Z,84.02
2019-01-21T09:32:46.545Z,83.89
2019-01-21T09:33:55.851Z,83.96
2019-01-21T09:35:30.854Z,83.64
2019-01-21T09:36:49.438Z,83.62
2019-01-21T09:38:15.488Z,83.79
2019-01-21T09:39:46.520Z,84.21
2019-01-21T09:41:08.339Z,84.45
2019-01-21T09:42:17.614Z,84.38
2019-01-21T09:43:26.895Z,84.45
2019-01-21T09:44:39.438Z,84.24
2019-01-21T09:45:48.920Z,84.13
2019-01-21T09:46:51.278Z,84.25
2019-01-21T09:47:53.722Z,84.29
2019-01-21T09:48:56.039Z,84.55
2019-01-21T09:49:59.409Z,84.76
2019-01-21T09:51:05.011Z,84.96
2019-01-21T09:52:08.397Z,84.90
2019-01-21T09:53:11.878Z,84.88
2019-01-21T09:54:15.232Z,85.24
2019-01-21T09:55:18.581Z,85.31
2019-01-21T09:56:22.185Z,85.10
2019-01-21T09:57:25.486Z,84.98
2019-01-21T09:58:28.980Z,84.61
2019-01-21T09:59:33.320Z,84.67
2019-01-21T10:00:36.619Z,84.60
2019-01-21T10:01:39.921Z,84.59
2019-01-21T10:02:43.216Z,84.55
2019-01-21T10:03:46.551Z,84.85
2019-01-21T10:04:50.864Z,84.91
2019-01-21T10:05:57.576Z,85.13
2019-01-21T10:07:19.440Z,85.16
2019-01-21T10:08:25.994Z,85.27
2019-01-21T10:09:41.636Z,85.08
2019-01-21T10:11:04.394Z,85.05
2019-01-21T10:12:27.619Z,85.10
2019-01-21T10:13:52.093Z,84.67
2019-01-21T10:15:16.669Z,84.59
2019-01-21T10:16:23.304Z,84.75
2019-01-21T10:17:38.665Z,84.52
2019-01-21T10:19:01.417Z,84.48
2019-01-21T10:20:10.761Z,84.67
2019-01-21T10:21:17.356Z,84.73
2019-01-21T10:22:32.959Z,84.74
2019-01-21T10:23:48.406Z,84.81
2019-01-21T10:25:06.747Z,84.77
2019-01-21T10:26:22.534Z,84.72
2019-01-21T10:27:40.584Z,84.80
2019-01-21T10:28:55.041Z,84.76
2019-01-21T10:30:10.467Z,84.63
2019-01-21T10:31:22.801Z,84.30
2019-01-21T10:32:32.438Z,84.21
2019-01-21T10:33:47.652Z,84.25
2019-01-21T10:34:54.310Z,84.38
2019-01-21T10:36:21.774Z,84.48
2019-01-21T10:37:34.577Z,84.31
2019-01-21T10:38:59.330Z,83.75
2019-01-21T10:40:26.941Z,83.63
2019-01-21T10:41:39.293Z,83.97
2019-01-21T10:42:51.428Z,84.20
2019-01-21T10:44:14.637Z,83.94
2019-01-21T10:45:37.716Z,83.63
2019-01-21T10:47:11.732Z,83.60
2019-01-21T10:48:24.188Z,83.32
2019-01-21T10:49:49.206Z,82.96
2019-01-21T10:51:04.888Z,82.94
2019-01-21T10:52:23.356Z,82.91
2019-01-21T10:53:47.971Z,82.90
2019-01-21T10:55:29.483Z,82.76
2019-01-21T10:56:42.037Z,81.83
2019-01-21T10:57:48.600Z,81.82
2019-01-21T10:59:00.837Z,82.03
2019-01-21T11:00:28.835Z,82.03
2019-01-21T11:01:56.737Z,82.37
2019-01-21T11:03:09.059Z,82.35
2019-01-21T11:04:21.728Z,82.25
2019-01-21T11:05:40.482Z,82.12
2019-01-21T11:07:11.221Z,81.49
2019-01-21T11:08:20.397Z,81.10
2019-01-21T11:09:26.974Z,80.89
2019-01-21T11:10:39.192Z,81.29
2019-01-21T11:11:54.843Z,81.56
2019-01-21T11:13:13.693Z,81.70
2019-01-21T11:14:32.400Z,81.74
2019-01-21T11:15:44.652Z,81.96
2019-01-21T11:17:13.770Z,81.86
2019-01-21T11:18:23.410Z,81.65
2019-01-21T11:19:52.718Z,81.57
2019-01-21T11:20:59.274Z,81.65
2019-01-21T11:22:06.309Z,81.79
2019-01-21T11:23:30.839Z,81.94
2019-01-21T11:25:09.722Z,82.05
2019-01-21T11:26:25.305Z,82.02
2019-01-21T11:27:37.631Z,82.03
2019-01-21T11:29:01.782Z,81.91
2019-01-21T11:30:11.131Z,81.67
2019-01-21T11:31:32.396Z,80.91
2019-01-21T11:32:59.356Z,80.36
2019-01-21T11:34:25.404Z,80.15
2019-01-21T11:35:31.958Z,79.48
2019-01-21T11:36:41.269Z,79.36
2019-01-21T11:38:12.235Z,79.38
2019-01-21T11:39:21.432Z,79.05
2019-01-21T11:40:36.441Z,79.13
2019-01-21T11:41:55.112Z,79.54
2019-01-21T11:43:16.877Z,79.53
2019-01-21T11:44:38.493Z,79.76
2019-01-21T11:46:08.895Z,79.58
2019-01-21T11:47:36.865Z,79.66
2019-01-21T11:48:59.935Z,79.05
2019-01-21T11:50:10.503Z,79.12
2019-01-21T11:51:32.979Z,79.16
2019-01-21T11:52:42.392Z,79.29
2019-01-21T11:54:16.696Z,79.46
2019-01-21T11:55:37.884Z,79.64
2019-01-21T11:56:56.393Z,79.45
2019-01-21T11:58:33.153Z,78.94
2019-01-21T11:59:51.308Z,78.85
2019-01-21T12:01:13.045Z,79.42
2019-01-21T12:02:27.932Z,79.20
2019-01-21T12:03:49.091Z,79.20
2019-01-21T12:04:55.679Z,79.54
2019-01-21T12:06:01.007Z,79.29
2019-01-21T12:07:13.349Z,79.47
2019-01-21T12:08:22.651Z,79.62
2019-01-21T12:09:32.181Z,78.76
2019-01-21T12:10:44.492Z,78.39
2019-01-21T12:11:54.011Z,77.68
2019-01-21T12:13:12.751Z,77.56
2019-01-21T12:14:31.227Z,77.60
2019-01-21T12:16:09.534Z,77.83
2019-01-21T12:17:24.682Z,78.33
2019-01-21T12:18:49.495Z,77.92
2019-01-21T12:20:16.867Z,77.46
2019-01-21T12:21:27.104Z,76.95
2019-01-21T12:22:42.200Z,77.09
2019-01-21T12:24:00.568Z,77.76
2019-01-21T12:25:28.284Z,78.57
2019-01-21T12:27:08.247Z,78.87
2019-01-21T12:28:34.482Z,79.01
2019-01-21T12:29:41.032Z,79.77
2019-01-21T12:30:47.625Z,79.76
2019-01-21T12:32:00.151Z,79.44
2019-01-21T12:33:18.852Z,79.58
2019-01-21T12:34:49.122Z,79.20
2019-01-21T12:36:10.881Z,79.25
2019-01-21T12:37:23.112Z,79.19
2019-01-21T12:38:35.438Z,79.33
2019-01-21T12:39:47.999Z,79.46
2019-01-21T12:41:21.619Z,79.57
2019-01-21T12:42:31.041Z,79.30
2019-01-21T12:43:49.118Z,79.18
2019-01-21T12:45:21.068Z,78.21
2019-01-21T12:46:30.358Z,78.38
2019-01-21T12:47:45.413Z,78.29
2019-01-21T12:49:09.944Z,77.95
2019-01-21T12:50:38.049Z,78.10
2019-01-21T12:51:59.841Z,78.01
2019-01-21T12:53:09.604Z,77.90
2019-01-21T12:54:32.632Z,78.19
2019-01-21T12:55:48.322Z,78.26
2019-01-21T12:57:09.991Z,78.58
2019-01-21T12:58:22.745Z,78.46
2019-01-21T12:59:32.124Z,78.40
2019-01-21T13:00:58.307Z,78.49
2019-01-21T13:02:20.071Z,78.62
2019-01-21T13:03:43.337Z,78.70
2019-01-21T13:05:07.998Z,81.28
2019-01-21T13:06:20.142Z,81.01
2019-01-21T13:07:32.787Z,81.82
2019-01-21T13:08:45.221Z,80.61
2019-01-21T13:10:10.146Z,79.35
2019-01-21T13:11:41.068Z,78.73
2019-01-21T13:13:05.065Z,77.79
2019-01-21T13:14:11.629Z,78.25
2019-01-21T13:15:39.228Z,78.06
2019-01-21T13:16:51.808Z,77.87
2019-01-21T13:18:01.083Z,77.58
2019-01-21T13:19:28.833Z,77.57
2019-01-21T13:20:38.323Z,77.84
2019-01-21T13:21:44.889Z,77.97
2019-01-21T13:22:51.788Z,78.14
2019-01-21T13:24:01.212Z,78.61
2019-01-21T13:25:28.930Z,78.66
2019-01-21T13:26:53.448Z,78.60
2019-01-21T13:28:05.990Z,78.73
2019-01-21T13:29:15.419Z,79.37
2019-01-21T13:30:27.908Z,79.18
2019-01-21T13:31:43.090Z,78.67
2019-01-21T13:32:52.342Z,78.42
2019-01-21T13:34:26.485Z,78.31
2019-01-21T13:35:38.945Z,78.18
2019-01-21T13:37:14.162Z,78.26
2019-01-21T13:38:26.943Z,78.54
2019-01-21T13:39:55.667Z,78.10
2019-01-21T13:41:02.250Z,78.32
2019-01-21T13:42:14.994Z,78.55
2019-01-21T13:43:45.347Z,78.69
2019-01-21T13:45:07.027Z,78.84
2019-01-21T13:46:34.732Z,78.38
2019-01-21T13:47:46.882Z,78.31
2019-01-21T13:49:02.396Z,78.20
2019-01-21T13:50:08.964Z,78.12
2019-01-21T13:51:24.444Z,78.43
2019-01-21T13:53:09.622Z,78.57
2019-01-21T13:54:30.867Z,78.71
2019-01-21T13:55:40.093Z,78.67
2019-01-21T13:56:52.503Z,78.61
2019-01-21T13:58:18.897Z,78.61
2019-01-21T13:59:34.378Z,79.06
2019-01-21T14:00:49.310Z,78.90
2019-01-21T14:02:01.981Z,79.04
2019-01-21T14:03:11.570Z,79.15
2019-01-21T14:04:27.048Z,79.09
2019-01-21T14:05:36.509Z,79.28
2019-01-21T14:06:55.147Z,78.88
2019-01-21T14:08:04.570Z,78.85
2019-01-21T14:09:16.773Z,79.12
2019-01-21T14:10:29.310Z,78.90
2019-01-21T14:11:44.807Z,79.01
2019-01-21T14:13:12.668Z,79.01
2019-01-21T14:14:25.084Z,78.79
2019-01-21T14:15:40.678Z,78.77
2019-01-21T14:17:05.456Z,78.71
2019-01-21T14:18:14.693Z,79.03
2019-01-21T14:19:26.100Z,78.86
2019-01-21T14:20:47.416Z,78.85
2019-01-21T14:21:56.809Z,78.63
2019-01-21T14:23:09.032Z,78.84
2019-01-21T14:24:21.433Z,79.05
2019-01-21T14:25:43.154Z,79.09
2019-01-21T14:27:04.941Z,79.08
2019-01-21T14:28:41.684Z,79.32
2019-01-21T14:29:53.892Z,79.29
2019-01-21T14:31:32.382Z,79.31
2019-01-21T14:32:44.930Z,79.51
2019-01-21T14:33:54.380Z,79.55
2019-01-21T14:35:15.357Z,79.57
2019-01-21T14:36:24.849Z,79.55
2019-01-21T14:37:37.336Z,79.56
2019-01-21T14:39:06.457Z,79.64
2019-01-21T14:40:31.263Z,79.63
2019-01-21T14:41:43.280Z,79.62
2019-01-21T14:43:08.515Z,79.44
2019-01-21T14:44:26.510Z,79.58
2019-01-21T14:45:50.964Z,79.64
2019-01-21T14:47:09.563Z,79.80
2019-01-21T14:48:37.490Z,79.70
2019-01-21T14:50:00.705Z,79.72
2019-01-21T14:51:19.184Z,79.77
2019-01-21T14:52:25.847Z,79.88
2019-01-21T14:53:45.037Z,80.13
2019-01-21T14:54:54.342Z,80.25
2019-01-21T14:56:21.638Z,80.07
2019-01-21T14:57:30.767Z,80.18
2019-01-21T14:58:49.275Z,80.12
2019-01-21T15:00:15.418Z,80.25
2019-01-21T15:01:21.999Z,80.30
2019-01-21T15:02:51.247Z,80.48
2019-01-21T15:04:00.699Z,80.19
2019-01-21T15:05:24.818Z,79.77
2019-01-21T15:06:52.609Z,79.94
2019-01-21T15:08:08.628Z,79.91
2019-01-21T15:09:23.798Z,80.27
2019-01-21T15:10:35.728Z,80.42
2019-01-21T15:12:15.526Z,80.36
2019-01-21T15:13:22.177Z,80.27
2019-01-21T15:14:48.197Z,80.33
2019-01-21T15:16:15.580Z,80.31
2019-01-21T15:17:40.008Z,80.40
2019-01-21T15:18:52.232Z,80.05
2019-01-21T15:19:56.665Z,80.06
2019-01-21T15:21:15.515Z,80.08
2019-01-21T15:22:36.907Z,80.32
2019-01-21T15:24:03.010Z,80.21
2019-01-21T15:25:36.940Z,80.06
2019-01-21T15:26:49.650Z,80.33
2019-01-21T15:28:02.265Z,80.38
2019-01-21T15:29:42.200Z,80.32
2019-01-21T15:30:58.059Z,80.31
2019-01-21T15:32:13.573Z,80.38
2019-01-21T15:33:44.743Z,80.59
2019-01-21T15:35:07.974Z,80.49
2019-01-21T15:36:20.314Z,80.56
2019-01-21T15:37:36.033Z,80.76
2019-01-21T15:39:05.438Z,80.91
2019-01-21T15:40:28.377Z,80.69
2019-01-21T15:41:47.175Z,80.51
2019-01-21T15:42:59.562Z,80.59
2019-01-21T15:44:11.979Z,80.62
2019-01-21T15:45:21.237Z,80.53
2019-01-21T15:46:28.286Z,80.47
2019-01-21T15:47:51.375Z,80.38
2019-01-21T15:49:03.504Z,80.34
2019-01-21T15:50:21.478Z,80.60
2019-01-21T15:51:40.065Z,80.54
2019-01-21T15:53:06.318Z,80.44
2019-01-21T15:54:25.057Z,80.77
2019-01-21T15:55:31.718Z,80.48
2019-01-21T15:56:56.811Z,80.54
2019-01-21T15:58:18.926Z,80.49
2019-01-21T15:59:20.217Z,80.36
2019-01-21T16:00:38.954Z,80.98
2019-01-21T16:01:48.094Z,81.03
2019-01-21T16:03:12.570Z,80.78
2019-01-21T16:04:31.021Z,80.75
2019-01-21T16:05:52.687Z,80.89
2019-01-21T16:06:59.253Z,82.18
2019-01-21T16:08:06.394Z,81.66
2019-01-21T16:09:19.089Z,81.24
2019-01-21T16:10:45.135Z,81.14